sensor_id;sensor_type;location;lat;lon;timestamp;P1;durP1;ratioP1;P2;durP2;ratioP2
67640;SDS011;54434;50.096;20.082;2024-02-14T00:00:18;14.80;;;6.20;;
67640;SDS011;54434;50.096;20.082;2024-02-14T00:03:33;15.90;;;6.90;;
67640;SDS011;54434;50.096;20.082;2024-02-14T00:06:28;15.90;;;7.00;;
67640;SDS011;54434;50.096;20.082;2024-02-14T00:09:27;17.00;;;6.30;;
67640;SDS011;54434;50.096;20.082;2024-02-14T00:12:22;16.00;;;7.10;;
67640;SDS011;54434;50.096;20.082;2024-02-14T00:15:17;15.90;;;7.30;;
67640;SDS011;54434;50.096;20.082;2024-02-14T00:18:11;16.70;;;6.90;;
67640;SDS011;54434;50.096;20.082;2024-02-14T00:21:07;15.70;;;7.30;;
67640;SDS011;54434;50.096;20.082;2024-02-14T00:24:02;15.20;;;7.20;;
67640;SDS011;54434;50.096;20.082;2024-02-14T00:26:57;18.30;;;8.00;;
67640;SDS011;54434;50.096;20.082;2024-02-14T00:29:52;17.00;;;7.80;;
67640;SDS011;54434;50.096;20.082;2024-02-14T00:32:47;19.60;;;8.30;;
67640;SDS011;54434;50.096;20.082;2024-02-14T00:35:43;17.00;;;8.10;;
67640;SDS011;54434;50.096;20.082;2024-02-14T00:38:37;20.90;;;9.10;;
67640;SDS011;54434;50.096;20.082;2024-02-14T00:41:32;17.50;;;8.60;;
67640;SDS011;54434;50.096;20.082;2024-02-14T00:44:26;21.70;;;9.00;;
67640;SDS011;54434;50.096;20.082;2024-02-14T00:47:21;21.60;;;9.40;;
67640;SDS011;54434;50.096;20.082;2024-02-14T00:50:15;21.60;;;9.60;;
67640;SDS011;54434;50.096;20.082;2024-02-14T00:53:09;19.20;;;9.40;;
67640;SDS011;54434;50.096;20.082;2024-02-14T00:56:05;21.30;;;10.60;;
67640;SDS011;54434;50.096;20.082;2024-02-14T00:59:00;24.10;;;11.40;;
67640;SDS011;54434;50.096;20.082;2024-02-14T01:01:54;23.90;;;11.60;;
67640;SDS011;54434;50.096;20.082;2024-02-14T01:04:49;25.10;;;11.00;;
67640;SDS011;54434;50.096;20.082;2024-02-14T01:07:44;24.00;;;11.50;;
67640;SDS011;54434;50.096;20.082;2024-02-14T01:10:39;27.30;;;13.00;;
67640;SDS011;54434;50.096;20.082;2024-02-14T01:13:33;29.10;;;12.80;;
67640;SDS011;54434;50.096;20.082;2024-02-14T01:16:28;25.60;;;13.40;;
67640;SDS011;54434;50.096;20.082;2024-02-14T01:19:23;24.60;;;12.60;;
67640;SDS011;54434;50.096;20.082;2024-02-14T01:22:20;24.60;;;12.50;;
67640;SDS011;54434;50.096;20.082;2024-02-14T01:25:14;26.30;;;13.90;;
67640;SDS011;54434;50.096;20.082;2024-02-14T01:28:09;30.00;;;13.50;;
67640;SDS011;54434;50.096;20.082;2024-02-14T01:31:04;30.00;;;13.70;;
67640;SDS011;54434;50.096;20.082;2024-02-14T01:33:59;30.10;;;13.70;;
67640;SDS011;54434;50.096;20.082;2024-02-14T01:36:54;29.00;;;13.60;;
67640;SDS011;54434;50.096;20.082;2024-02-14T01:39:49;30.10;;;15.00;;
67640;SDS011;54434;50.096;20.082;2024-02-14T01:42:43;30.60;;;14.00;;
67640;SDS011;54434;50.096;20.082;2024-02-14T01:45:37;33.00;;;15.70;;
67640;SDS011;54434;50.096;20.082;2024-02-14T01:48:31;30.20;;;15.90;;
67640;SDS011;54434;50.096;20.082;2024-02-14T01:51:27;30.10;;;15.30;;
67640;SDS011;54434;50.096;20.082;2024-02-14T01:54:22;26.30;;;15.00;;
67640;SDS011;54434;50.096;20.082;2024-02-14T01:57:18;27.20;;;13.40;;
67640;SDS011;54434;50.096;20.082;2024-02-14T02:00:16;24.40;;;13.60;;
67640;SDS011;54434;50.096;20.082;2024-02-14T02:03:10;29.30;;;15.10;;
67640;SDS011;54434;50.096;20.082;2024-02-14T02:06:06;30.90;;;15.10;;
67640;SDS011;54434;50.096;20.082;2024-02-14T02:09:02;30.90;;;15.70;;
67640;SDS011;54434;50.096;20.082;2024-02-14T02:11:58;27.50;;;15.00;;
67640;SDS011;54434;50.096;20.082;2024-02-14T02:14:53;32.00;;;15.50;;
67640;SDS011;54434;50.096;20.082;2024-02-14T02:17:47;34.80;;;16.90;;
67640;SDS011;54434;50.096;20.082;2024-02-14T02:20:45;34.20;;;16.70;;
67640;SDS011;54434;50.096;20.082;2024-02-14T02:23:40;38.60;;;16.90;;
67640;SDS011;54434;50.096;20.082;2024-02-14T02:26:35;35.70;;;16.20;;
67640;SDS011;54434;50.096;20.082;2024-02-14T02:29:30;34.00;;;16.40;;
67640;SDS011;54434;50.096;20.082;2024-02-14T02:32:25;29.90;;;16.50;;
67640;SDS011;54434;50.096;20.082;2024-02-14T02:35:19;28.50;;;15.80;;
67640;SDS011;54434;50.096;20.082;2024-02-14T02:38:16;36.70;;;17.20;;
67640;SDS011;54434;50.096;20.082;2024-02-14T02:41:13;36.90;;;17.00;;
67640;SDS011;54434;50.096;20.082;2024-02-14T02:44:07;35.90;;;17.20;;
67640;SDS011;54434;50.096;20.082;2024-02-14T02:47:03;32.10;;;16.20;;
67640;SDS011;54434;50.096;20.082;2024-02-14T02:49:58;32.60;;;17.10;;
67640;SDS011;54434;50.096;20.082;2024-02-14T02:52:54;32.70;;;17.10;;
67640;SDS011;54434;50.096;20.082;2024-02-14T02:55:49;34.20;;;16.30;;
67640;SDS011;54434;50.096;20.082;2024-02-14T02:58:45;35.70;;;16.50;;
67640;SDS011;54434;50.096;20.082;2024-02-14T03:01:40;35.80;;;18.00;;
67640;SDS011;54434;50.096;20.082;2024-02-14T03:04:35;32.20;;;16.50;;
67640;SDS011;54434;50.096;20.082;2024-02-14T03:07:42;36.10;;;16.70;;
67640;SDS011;54434;50.096;20.082;2024-02-14T03:10:39;32.90;;;17.20;;
67640;SDS011;54434;50.096;20.082;2024-02-14T03:13:34;33.50;;;16.90;;
67640;SDS011;54434;50.096;20.082;2024-02-14T03:16:31;40.30;;;18.10;;
67640;SDS011;54434;50.096;20.082;2024-02-14T03:19:25;35.00;;;17.40;;
67640;SDS011;54434;50.096;20.082;2024-02-14T03:22:21;35.30;;;18.30;;
67640;SDS011;54434;50.096;20.082;2024-02-14T03:25:17;32.40;;;17.20;;
67640;SDS011;54434;50.096;20.082;2024-02-14T03:28:12;36.70;;;17.00;;
67640;SDS011;54434;50.096;20.082;2024-02-14T03:31:06;35.40;;;17.90;;
67640;SDS011;54434;50.096;20.082;2024-02-14T03:34:06;37.70;;;18.40;;
67640;SDS011;54434;50.096;20.082;2024-02-14T03:37:02;38.30;;;18.50;;
67640;SDS011;54434;50.096;20.082;2024-02-14T03:39:58;34.30;;;18.90;;
67640;SDS011;54434;50.096;20.082;2024-02-14T03:42:55;37.50;;;19.30;;
67640;SDS011;54434;50.096;20.082;2024-02-14T03:45:49;38.40;;;19.10;;
67640;SDS011;54434;50.096;20.082;2024-02-14T03:48:46;34.40;;;18.40;;
67640;SDS011;54434;50.096;20.082;2024-02-14T03:51:41;38.10;;;18.70;;
67640;SDS011;54434;50.096;20.082;2024-02-14T03:54:36;35.10;;;18.80;;
67640;SDS011;54434;50.096;20.082;2024-02-14T03:57:31;35.60;;;18.60;;
67640;SDS011;54434;50.096;20.082;2024-02-14T04:00:30;40.80;;;19.10;;
67640;SDS011;54434;50.096;20.082;2024-02-14T04:03:26;33.90;;;18.50;;
67640;SDS011;54434;50.096;20.082;2024-02-14T04:06:21;35.30;;;17.40;;
67640;SDS011;54434;50.096;20.082;2024-02-14T04:09:15;37.00;;;18.60;;
67640;SDS011;54434;50.096;20.082;2024-02-14T04:12:10;32.30;;;18.00;;
67640;SDS011;54434;50.096;20.082;2024-02-14T04:15:05;40.20;;;19.30;;
67640;SDS011;54434;50.096;20.082;2024-02-14T04:18:01;39.50;;;18.60;;
67640;SDS011;54434;50.096;20.082;2024-02-14T04:20:58;36.70;;;18.80;;
67640;SDS011;54434;50.096;20.082;2024-02-14T04:23:56;37.60;;;18.60;;
67640;SDS011;54434;50.096;20.082;2024-02-14T04:26:50;38.20;;;19.30;;
67640;SDS011;54434;50.096;20.082;2024-02-14T04:29:48;34.60;;;17.50;;
67640;SDS011;54434;50.096;20.082;2024-02-14T04:32:42;36.50;;;18.10;;
67640;SDS011;54434;50.096;20.082;2024-02-14T04:35:37;37.10;;;18.70;;
67640;SDS011;54434;50.096;20.082;2024-02-14T04:38:31;36.70;;;17.30;;
67640;SDS011;54434;50.096;20.082;2024-02-14T04:41:26;33.70;;;17.00;;
67640;SDS011;54434;50.096;20.082;2024-02-14T04:44:21;33.60;;;17.10;;
67640;SDS011;54434;50.096;20.082;2024-02-14T04:47:15;37.50;;;17.30;;
67640;SDS011;54434;50.096;20.082;2024-02-14T04:50:12;33.10;;;16.20;;
67640;SDS011;54434;50.096;20.082;2024-02-14T04:53:06;94.50;;;41.30;;
67640;SDS011;54434;50.096;20.082;2024-02-14T04:56:01;66.80;;;29.60;;
67640;SDS011;54434;50.096;20.082;2024-02-14T04:58:56;41.50;;;18.50;;
67640;SDS011;54434;50.096;20.082;2024-02-14T05:01:51;33.50;;;16.70;;
67640;SDS011;54434;50.096;20.082;2024-02-14T05:04:45;33.90;;;16.70;;
67640;SDS011;54434;50.096;20.082;2024-02-14T05:07:39;33.40;;;17.00;;
67640;SDS011;54434;50.096;20.082;2024-02-14T05:10:33;34.30;;;17.40;;
67640;SDS011;54434;50.096;20.082;2024-02-14T05:13:27;35.80;;;17.50;;
67640;SDS011;54434;50.096;20.082;2024-02-14T05:16:23;33.50;;;17.20;;
67640;SDS011;54434;50.096;20.082;2024-02-14T05:19:17;140.60;;;61.30;;
67640;SDS011;54434;50.096;20.082;2024-02-14T05:22:12;91.60;;;36.60;;
67640;SDS011;54434;50.096;20.082;2024-02-14T05:25:08;33.00;;;18.60;;
67640;SDS011;54434;50.096;20.082;2024-02-14T05:28:03;34.40;;;18.30;;
67640;SDS011;54434;50.096;20.082;2024-02-14T05:30:59;34.70;;;17.50;;
67640;SDS011;54434;50.096;20.082;2024-02-14T05:33:54;37.70;;;17.50;;
67640;SDS011;54434;50.096;20.082;2024-02-14T05:36:48;35.90;;;18.10;;
67640;SDS011;54434;50.096;20.082;2024-02-14T05:39:43;37.10;;;18.50;;
67640;SDS011;54434;50.096;20.082;2024-02-14T05:42:37;37.80;;;17.30;;
67640;SDS011;54434;50.096;20.082;2024-02-14T05:45:32;38.20;;;18.10;;
67640;SDS011;54434;50.096;20.082;2024-02-14T05:48:26;35.60;;;19.10;;
67640;SDS011;54434;50.096;20.082;2024-02-14T05:51:21;35.60;;;18.10;;
67640;SDS011;54434;50.096;20.082;2024-02-14T05:54:15;40.60;;;20.40;;
67640;SDS011;54434;50.096;20.082;2024-02-14T05:57:09;40.00;;;19.80;;
67640;SDS011;54434;50.096;20.082;2024-02-14T06:00:05;39.50;;;19.40;;
67640;SDS011;54434;50.096;20.082;2024-02-14T06:03:03;39.50;;;19.60;;
67640;SDS011;54434;50.096;20.082;2024-02-14T06:05:58;36.80;;;19.50;;
67640;SDS011;54434;50.096;20.082;2024-02-14T06:08:53;39.10;;;19.70;;
67640;SDS011;54434;50.096;20.082;2024-02-14T06:11:49;39.90;;;20.40;;
67640;SDS011;54434;50.096;20.082;2024-02-14T06:14:43;42.60;;;19.30;;
67640;SDS011;54434;50.096;20.082;2024-02-14T06:17:39;39.80;;;20.10;;
67640;SDS011;54434;50.096;20.082;2024-02-14T06:20:34;39.70;;;20.00;;
67640;SDS011;54434;50.096;20.082;2024-02-14T06:23:30;35.80;;;19.40;;
67640;SDS011;54434;50.096;20.082;2024-02-14T06:26:24;43.10;;;20.30;;
67640;SDS011;54434;50.096;20.082;2024-02-14T06:29:19;38.20;;;19.20;;
67640;SDS011;54434;50.096;20.082;2024-02-14T06:32:14;35.30;;;19.00;;
67640;SDS011;54434;50.096;20.082;2024-02-14T06:35:09;37.70;;;18.70;;
67640;SDS011;54434;50.096;20.082;2024-02-14T06:38:07;37.20;;;19.40;;
67640;SDS011;54434;50.096;20.082;2024-02-14T06:41:01;43.10;;;19.40;;
67640;SDS011;54434;50.096;20.082;2024-02-14T06:43:56;41.90;;;20.70;;
67640;SDS011;54434;50.096;20.082;2024-02-14T06:46:50;42.10;;;19.50;;
67640;SDS011;54434;50.096;20.082;2024-02-14T06:49:45;40.50;;;19.10;;
67640;SDS011;54434;50.096;20.082;2024-02-14T06:52:39;42.90;;;18.40;;
67640;SDS011;54434;50.096;20.082;2024-02-14T06:55:34;38.00;;;19.80;;
67640;SDS011;54434;50.096;20.082;2024-02-14T06:58:28;36.10;;;20.00;;
67640;SDS011;54434;50.096;20.082;2024-02-14T07:01:23;40.10;;;19.30;;
67640;SDS011;54434;50.096;20.082;2024-02-14T07:04:20;43.00;;;20.80;;
67640;SDS011;54434;50.096;20.082;2024-02-14T07:07:16;48.60;;;22.30;;
67640;SDS011;54434;50.096;20.082;2024-02-14T07:10:12;43.60;;;22.20;;
67640;SDS011;54434;50.096;20.082;2024-02-14T07:13:06;42.70;;;21.60;;
67640;SDS011;54434;50.096;20.082;2024-02-14T07:16:01;46.30;;;23.20;;
67640;SDS011;54434;50.096;20.082;2024-02-14T07:18:59;49.50;;;22.10;;
67640;SDS011;54434;50.096;20.082;2024-02-14T07:21:54;51.50;;;23.80;;
67640;SDS011;54434;50.096;20.082;2024-02-14T07:24:49;57.00;;;24.70;;
67640;SDS011;54434;50.096;20.082;2024-02-14T07:27:44;53.20;;;24.90;;
67640;SDS011;54434;50.096;20.082;2024-02-14T07:30:40;51.50;;;25.30;;
67640;SDS011;54434;50.096;20.082;2024-02-14T07:33:34;52.80;;;23.80;;
67640;SDS011;54434;50.096;20.082;2024-02-14T07:36:29;50.80;;;22.00;;
67640;SDS011;54434;50.096;20.082;2024-02-14T07:39:24;56.80;;;25.40;;
67640;SDS011;54434;50.096;20.082;2024-02-14T07:42:18;54.80;;;26.30;;
67640;SDS011;54434;50.096;20.082;2024-02-14T07:45:13;56.80;;;25.70;;
67640;SDS011;54434;50.096;20.082;2024-02-14T07:48:09;48.20;;;23.80;;
67640;SDS011;54434;50.096;20.082;2024-02-14T07:51:08;40.80;;;21.00;;
67640;SDS011;54434;50.096;20.082;2024-02-14T07:54:02;45.00;;;20.90;;
67640;SDS011;54434;50.096;20.082;2024-02-14T07:56:58;38.40;;;19.40;;
67640;SDS011;54434;50.096;20.082;2024-02-14T07:59:53;40.30;;;19.40;;
67640;SDS011;54434;50.096;20.082;2024-02-14T08:02:47;40.10;;;20.00;;
67640;SDS011;54434;50.096;20.082;2024-02-14T08:05:47;41.50;;;19.80;;
67640;SDS011;54434;50.096;20.082;2024-02-14T08:08:43;38.20;;;19.10;;
67640;SDS011;54434;50.096;20.082;2024-02-14T08:11:39;38.70;;;18.80;;
67640;SDS011;54434;50.096;20.082;2024-02-14T08:14:33;41.20;;;18.40;;
67640;SDS011;54434;50.096;20.082;2024-02-14T08:17:28;33.30;;;18.60;;
67640;SDS011;54434;50.096;20.082;2024-02-14T08:20:22;35.00;;;17.50;;
67640;SDS011;54434;50.096;20.082;2024-02-14T08:23:18;38.40;;;17.70;;
67640;SDS011;54434;50.096;20.082;2024-02-14T08:26:12;33.80;;;15.60;;
67640;SDS011;54434;50.096;20.082;2024-02-14T08:29:08;31.00;;;15.10;;
67640;SDS011;54434;50.096;20.082;2024-02-14T08:32:05;35.00;;;15.40;;
67640;SDS011;54434;50.096;20.082;2024-02-14T08:35:00;29.50;;;14.50;;
67640;SDS011;54434;50.096;20.082;2024-02-14T08:37:54;32.80;;;13.90;;
67640;SDS011;54434;50.096;20.082;2024-02-14T08:40:49;25.00;;;12.60;;
67640;SDS011;54434;50.096;20.082;2024-02-14T08:43:43;23.00;;;11.20;;
67640;SDS011;54434;50.096;20.082;2024-02-14T08:46:38;20.30;;;11.00;;
67640;SDS011;54434;50.096;20.082;2024-02-14T08:49:33;20.70;;;9.20;;
67640;SDS011;54434;50.096;20.082;2024-02-14T08:52:28;18.30;;;8.60;;
67640;SDS011;54434;50.096;20.082;2024-02-14T08:55:23;19.40;;;9.20;;
67640;SDS011;54434;50.096;20.082;2024-02-14T08:58:18;19.30;;;8.80;;
67640;SDS011;54434;50.096;20.082;2024-02-14T09:01:13;16.60;;;8.70;;
67640;SDS011;54434;50.096;20.082;2024-02-14T09:04:07;21.80;;;8.50;;
67640;SDS011;54434;50.096;20.082;2024-02-14T09:07:05;19.30;;;8.30;;
67640;SDS011;54434;50.096;20.082;2024-02-14T09:10:01;18.20;;;8.00;;
67640;SDS011;54434;50.096;20.082;2024-02-14T09:12:57;14.00;;;7.30;;
67640;SDS011;54434;50.096;20.082;2024-02-14T09:15:53;14.90;;;7.30;;
67640;SDS011;54434;50.096;20.082;2024-02-14T09:18:49;16.30;;;7.90;;
67640;SDS011;54434;50.096;20.082;2024-02-14T09:21:43;15.10;;;7.20;;
67640;SDS011;54434;50.096;20.082;2024-02-14T09:24:38;16.70;;;7.30;;
67640;SDS011;54434;50.096;20.082;2024-02-14T09:27:32;12.70;;;6.50;;
67640;SDS011;54434;50.096;20.082;2024-02-14T09:30:27;12.30;;;5.00;;
67640;SDS011;54434;50.096;20.082;2024-02-14T09:36:22;11.50;;;5.90;;
67640;SDS011;54434;50.096;20.082;2024-02-14T09:39:16;12.50;;;5.00;;
67640;SDS011;54434;50.096;20.082;2024-02-14T09:42:13;11.20;;;5.00;;
67640;SDS011;54434;50.096;20.082;2024-02-14T09:45:10;7.60;;;3.80;;
67640;SDS011;54434;50.096;20.082;2024-02-14T09:48:14;7.60;;;3.10;;
67640;SDS011;54434;50.096;20.082;2024-02-14T09:51:09;7.50;;;2.90;;
67640;SDS011;54434;50.096;20.082;2024-02-14T09:54:05;5.30;;;2.10;;
67640;SDS011;54434;50.096;20.082;2024-02-14T09:57:00;5.80;;;2.50;;
67640;SDS011;54434;50.096;20.082;2024-02-14T09:59:57;7.20;;;3.10;;
67640;SDS011;54434;50.096;20.082;2024-02-14T10:02:54;8.80;;;3.30;;
67640;SDS011;54434;50.096;20.082;2024-02-14T10:05:48;7.50;;;3.60;;
67640;SDS011;54434;50.096;20.082;2024-02-14T10:08:44;8.70;;;3.70;;
67640;SDS011;54434;50.096;20.082;2024-02-14T10:11:53;10.80;;;3.70;;
67640;SDS011;54434;50.096;20.082;2024-02-14T10:14:48;7.40;;;3.40;;
67640;SDS011;54434;50.096;20.082;2024-02-14T10:17:44;6.50;;;3.10;;
67640;SDS011;54434;50.096;20.082;2024-02-14T10:20:39;8.00;;;2.80;;
67640;SDS011;54434;50.096;20.082;2024-02-14T10:23:36;7.10;;;2.90;;
67640;SDS011;54434;50.096;20.082;2024-02-14T10:26:32;8.40;;;3.60;;
67640;SDS011;54434;50.096;20.082;2024-02-14T10:29:27;8.70;;;3.90;;
67640;SDS011;54434;50.096;20.082;2024-02-14T10:32:23;8.30;;;3.50;;
67640;SDS011;54434;50.096;20.082;2024-02-14T10:35:18;9.00;;;4.10;;
67640;SDS011;54434;50.096;20.082;2024-02-14T10:38:15;10.90;;;4.50;;
67640;SDS011;54434;50.096;20.082;2024-02-14T10:41:12;11.30;;;4.40;;
67640;SDS011;54434;50.096;20.082;2024-02-14T10:44:07;9.00;;;3.90;;
67640;SDS011;54434;50.096;20.082;2024-02-14T10:47:06;13.50;;;4.60;;
67640;SDS011;54434;50.096;20.082;2024-02-14T10:50:08;9.50;;;4.10;;
67640;SDS011;54434;50.096;20.082;2024-02-14T10:53:06;12.00;;;4.60;;
67640;SDS011;54434;50.096;20.082;2024-02-14T10:56:05;11.40;;;4.50;;
67640;SDS011;54434;50.096;20.082;2024-02-14T10:59:01;12.20;;;4.40;;
67640;SDS011;54434;50.096;20.082;2024-02-14T11:01:56;10.20;;;4.20;;
67640;SDS011;54434;50.096;20.082;2024-02-14T11:04:51;11.00;;;4.40;;
67640;SDS011;54434;50.096;20.082;2024-02-14T11:07:49;8.40;;;4.20;;
67640;SDS011;54434;50.096;20.082;2024-02-14T11:10:51;8.50;;;4.40;;
67640;SDS011;54434;50.096;20.082;2024-02-14T11:13:51;9.10;;;4.00;;
67640;SDS011;54434;50.096;20.082;2024-02-14T11:16:47;13.50;;;4.50;;
67640;SDS011;54434;50.096;20.082;2024-02-14T11:19:44;11.10;;;4.90;;
67640;SDS011;54434;50.096;20.082;2024-02-14T11:22:39;10.20;;;4.40;;
67640;SDS011;54434;50.096;20.082;2024-02-14T11:25:45;10.40;;;4.70;;
67640;SDS011;54434;50.096;20.082;2024-02-14T11:28:41;7.10;;;3.80;;
67640;SDS011;54434;50.096;20.082;2024-02-14T11:31:35;12.10;;;5.20;;
67640;SDS011;54434;50.096;20.082;2024-02-14T11:34:30;13.70;;;5.00;;
67640;SDS011;54434;50.096;20.082;2024-02-14T11:37:31;11.90;;;4.20;;
67640;SDS011;54434;50.096;20.082;2024-02-14T11:40:25;6.90;;;2.90;;
67640;SDS011;54434;50.096;20.082;2024-02-14T11:43:21;7.60;;;3.00;;
67640;SDS011;54434;50.096;20.082;2024-02-14T11:46:16;6.70;;;3.50;;
67640;SDS011;54434;50.096;20.082;2024-02-14T11:49:11;7.40;;;3.30;;
67640;SDS011;54434;50.096;20.082;2024-02-14T11:52:06;5.50;;;2.90;;
67640;SDS011;54434;50.096;20.082;2024-02-14T11:55:04;5.90;;;2.80;;
67640;SDS011;54434;50.096;20.082;2024-02-14T11:57:59;7.90;;;2.60;;
67640;SDS011;54434;50.096;20.082;2024-02-14T12:00:55;7.30;;;2.30;;
67640;SDS011;54434;50.096;20.082;2024-02-14T12:03:50;6.20;;;2.60;;
67640;SDS011;54434;50.096;20.082;2024-02-14T12:06:46;11.20;;;2.50;;
67640;SDS011;54434;50.096;20.082;2024-02-14T12:09:41;5.20;;;2.40;;
67640;SDS011;54434;50.096;20.082;2024-02-14T12:12:36;9.80;;;3.00;;
67640;SDS011;54434;50.096;20.082;2024-02-14T12:15:30;5.60;;;2.50;;
67640;SDS011;54434;50.096;20.082;2024-02-14T12:18:28;5.60;;;2.30;;
67640;SDS011;54434;50.096;20.082;2024-02-14T12:21:25;6.40;;;2.50;;
67640;SDS011;54434;50.096;20.082;2024-02-14T12:24:20;7.10;;;2.50;;
67640;SDS011;54434;50.096;20.082;2024-02-14T12:27:18;8.00;;;2.20;;
67640;SDS011;54434;50.096;20.082;2024-02-14T12:30:14;6.70;;;2.40;;
67640;SDS011;54434;50.096;20.082;2024-02-14T12:33:11;6.50;;;2.50;;
67640;SDS011;54434;50.096;20.082;2024-02-14T12:36:07;5.20;;;2.40;;
67640;SDS011;54434;50.096;20.082;2024-02-14T12:39:03;8.40;;;2.30;;
67640;SDS011;54434;50.096;20.082;2024-02-14T12:41:57;7.50;;;2.40;;
67640;SDS011;54434;50.096;20.082;2024-02-14T12:44:53;6.00;;;2.20;;
67640;SDS011;54434;50.096;20.082;2024-02-14T12:47:48;5.80;;;2.40;;
67640;SDS011;54434;50.096;20.082;2024-02-14T12:50:44;7.40;;;2.40;;
67640;SDS011;54434;50.096;20.082;2024-02-14T12:53:40;5.70;;;2.40;;
67640;SDS011;54434;50.096;20.082;2024-02-14T12:56:34;6.60;;;2.20;;
67640;SDS011;54434;50.096;20.082;2024-02-14T12:59:30;8.90;;;2.60;;
67640;SDS011;54434;50.096;20.082;2024-02-14T13:02:24;7.10;;;2.50;;
67640;SDS011;54434;50.096;20.082;2024-02-14T13:05:19;8.30;;;2.30;;
67640;SDS011;54434;50.096;20.082;2024-02-14T13:08:13;8.70;;;2.60;;
67640;SDS011;54434;50.096;20.082;2024-02-14T13:11:08;4.40;;;2.10;;
67640;SDS011;54434;50.096;20.082;2024-02-14T13:14:02;5.40;;;2.40;;
67640;SDS011;54434;50.096;20.082;2024-02-14T13:16:57;6.90;;;2.20;;
67640;SDS011;54434;50.096;20.082;2024-02-14T13:19:51;7.50;;;2.40;;
67640;SDS011;54434;50.096;20.082;2024-02-14T13:22:46;4.80;;;1.90;;
67640;SDS011;54434;50.096;20.082;2024-02-14T13:25:40;5.30;;;2.40;;
67640;SDS011;54434;50.096;20.082;2024-02-14T13:28:35;4.50;;;2.20;;
67640;SDS011;54434;50.096;20.082;2024-02-14T13:31:29;4.60;;;2.10;;
67640;SDS011;54434;50.096;20.082;2024-02-14T13:34:24;4.90;;;2.20;;
67640;SDS011;54434;50.096;20.082;2024-02-14T13:37:18;7.00;;;2.20;;
67640;SDS011;54434;50.096;20.082;2024-02-14T13:40:13;5.70;;;2.40;;
67640;SDS011;54434;50.096;20.082;2024-02-14T13:43:08;4.70;;;2.50;;
67640;SDS011;54434;50.096;20.082;2024-02-14T13:47:48;7.60;;;2.70;;
67640;SDS011;54434;50.096;20.082;2024-02-14T13:50:42;12.00;;;3.00;;
67640;SDS011;54434;50.096;20.082;2024-02-14T13:53:36;9.30;;;2.80;;
67640;SDS011;54434;50.096;20.082;2024-02-14T13:56:30;5.60;;;2.70;;
67640;SDS011;54434;50.096;20.082;2024-02-14T13:59:25;5.40;;;2.40;;
67640;SDS011;54434;50.096;20.082;2024-02-14T14:02:19;8.80;;;2.90;;
67640;SDS011;54434;50.096;20.082;2024-02-14T14:05:13;4.80;;;2.60;;
67640;SDS011;54434;50.096;20.082;2024-02-14T14:08:08;6.60;;;2.60;;
67640;SDS011;54434;50.096;20.082;2024-02-14T14:11:01;7.50;;;2.90;;
67640;SDS011;54434;50.096;20.082;2024-02-14T14:13:55;7.80;;;2.70;;
67640;SDS011;54434;50.096;20.082;2024-02-14T14:16:50;5.50;;;2.60;;
67640;SDS011;54434;50.096;20.082;2024-02-14T14:19:44;4.30;;;2.30;;
67640;SDS011;54434;50.096;20.082;2024-02-14T14:23:17;6.40;;;2.80;;
67640;SDS011;54434;50.096;20.082;2024-02-14T14:26:13;5.20;;;2.60;;
67640;SDS011;54434;50.096;20.082;2024-02-14T14:29:06;6.40;;;2.90;;
67640;SDS011;54434;50.096;20.082;2024-02-14T14:32:01;7.20;;;2.80;;
67640;SDS011;54434;50.096;20.082;2024-02-14T14:34:55;7.40;;;2.90;;
67640;SDS011;54434;50.096;20.082;2024-02-14T14:37:49;7.80;;;3.00;;
67640;SDS011;54434;50.096;20.082;2024-02-14T14:40:46;7.10;;;2.90;;
67640;SDS011;54434;50.096;20.082;2024-02-14T14:43:39;5.90;;;2.90;;
67640;SDS011;54434;50.096;20.082;2024-02-14T14:46:33;5.50;;;2.90;;
67640;SDS011;54434;50.096;20.082;2024-02-14T14:49:30;6.60;;;2.80;;
67640;SDS011;54434;50.096;20.082;2024-02-14T14:52:24;8.00;;;3.00;;
67640;SDS011;54434;50.096;20.082;2024-02-14T14:55:19;5.90;;;2.80;;
67640;SDS011;54434;50.096;20.082;2024-02-14T14:58:18;6.30;;;3.30;;
67640;SDS011;54434;50.096;20.082;2024-02-14T15:01:16;6.40;;;3.20;;
67640;SDS011;54434;50.096;20.082;2024-02-14T15:04:11;6.30;;;2.90;;
67640;SDS011;54434;50.096;20.082;2024-02-14T15:07:08;6.30;;;3.00;;
67640;SDS011;54434;50.096;20.082;2024-02-14T15:10:02;10.00;;;2.80;;
67640;SDS011;54434;50.096;20.082;2024-02-14T15:12:58;7.70;;;3.20;;
67640;SDS011;54434;50.096;20.082;2024-02-14T15:15:52;6.80;;;3.00;;
67640;SDS011;54434;50.096;20.082;2024-02-14T15:18:48;9.70;;;3.10;;
67640;SDS011;54434;50.096;20.082;2024-02-14T15:21:44;9.50;;;3.30;;
67640;SDS011;54434;50.096;20.082;2024-02-14T15:24:40;9.00;;;3.20;;
67640;SDS011;54434;50.096;20.082;2024-02-14T15:27:35;8.00;;;3.40;;
67640;SDS011;54434;50.096;20.082;2024-02-14T15:30:34;152.90;;;72.30;;
67640;SDS011;54434;50.096;20.082;2024-02-14T15:33:45;13.90;;;6.80;;
67640;SDS011;54434;50.096;20.082;2024-02-14T15:36:39;9.40;;;4.00;;
67640;SDS011;54434;50.096;20.082;2024-02-14T15:39:34;8.60;;;3.80;;
67640;SDS011;54434;50.096;20.082;2024-02-14T15:42:27;11.90;;;3.90;;
67640;SDS011;54434;50.096;20.082;2024-02-14T15:45:20;9.70;;;3.60;;
67640;SDS011;54434;50.096;20.082;2024-02-14T15:48:14;7.80;;;4.00;;
67640;SDS011;54434;50.096;20.082;2024-02-14T15:51:09;13.60;;;3.90;;
67640;SDS011;54434;50.096;20.082;2024-02-14T15:54:03;8.50;;;3.40;;
67640;SDS011;54434;50.096;20.082;2024-02-14T15:56:57;20.90;;;4.30;;
67640;SDS011;54434;50.096;20.082;2024-02-14T15:59:51;17.20;;;4.40;;
67640;SDS011;54434;50.096;20.082;2024-02-14T16:02:45;12.10;;;4.00;;
67640;SDS011;54434;50.096;20.082;2024-02-14T16:05:38;20.10;;;4.00;;
67640;SDS011;54434;50.096;20.082;2024-02-14T16:08:33;23.70;;;5.30;;
67640;SDS011;54434;50.096;20.082;2024-02-14T16:11:30;24.90;;;3.80;;
67640;SDS011;54434;50.096;20.082;2024-02-14T16:14:24;12.40;;;3.80;;
67640;SDS011;54434;50.096;20.082;2024-02-14T16:17:24;11.40;;;3.50;;
67640;SDS011;54434;50.096;20.082;2024-02-14T16:20:19;9.80;;;3.10;;
67640;SDS011;54434;50.096;20.082;2024-02-14T16:23:13;8.90;;;3.40;;
67640;SDS011;54434;50.096;20.082;2024-02-14T16:26:07;8.70;;;3.20;;
67640;SDS011;54434;50.096;20.082;2024-02-14T16:29:00;6.10;;;2.80;;
67640;SDS011;54434;50.096;20.082;2024-02-14T16:31:53;14.60;;;3.20;;
67640;SDS011;54434;50.096;20.082;2024-02-14T16:34:48;6.60;;;3.10;;
67640;SDS011;54434;50.096;20.082;2024-02-14T16:37:41;9.20;;;3.00;;
67640;SDS011;54434;50.096;20.082;2024-02-14T16:40:35;8.90;;;3.30;;
67640;SDS011;54434;50.096;20.082;2024-02-14T16:43:37;7.00;;;3.40;;
67640;SDS011;54434;50.096;20.082;2024-02-14T16:46:30;10.40;;;3.20;;
67640;SDS011;54434;50.096;20.082;2024-02-14T16:49:24;7.70;;;3.30;;
67640;SDS011;54434;50.096;20.082;2024-02-14T16:52:18;9.40;;;4.10;;
67640;SDS011;54434;50.096;20.082;2024-02-14T16:55:11;14.00;;;4.80;;
67640;SDS011;54434;50.096;20.082;2024-02-14T16:58:05;12.50;;;5.40;;
67640;SDS011;54434;50.096;20.082;2024-02-14T17:00:59;13.00;;;5.80;;
67640;SDS011;54434;50.096;20.082;2024-02-14T17:03:52;22.80;;;7.80;;
67640;SDS011;54434;50.096;20.082;2024-02-14T17:06:55;16.10;;;7.70;;